Time;durP1;ratioP1;P1;durP2;ratioP2;P2;SDS_P1;SDS_P2;PMS_P1;PMS_P2;Temp;Humidity;BMP_temperature;BMP_pressure;BME280_temperature;BME280_humidity;BME280_pressure;Samples;Min_cycle;Max_cycle;Signal;HPM_P1;HPM_P2
2021/04/18 00:01:59;;;;;;;5.97;3.08;;;7.40;78.40;;;;;;4956644;28;20043;-81
2021/04/18 00:04:25;;;;;;;5.07;3.00;;;7.40;78.20;;;;;;4973738;28;20049;-81
2021/04/18 00:06:51;;;;;;;8.63;3.40;;;7.40;78.50;;;;;;4960652;28;20038;-82
2021/04/18 00:09:17;;;;;;;5.70;3.22;;;7.50;78.90;;;;;;4978020;28;20058;-81
2021/04/18 00:11:44;;;;;;;6.35;3.50;;;7.40;79.10;;;;;;4978965;28;20371;-81
2021/04/18 00:14:11;;;;;;;6.25;4.57;;;7.40;78.90;;;;;;4976788;28;20388;-81
2021/04/18 00:16:38;;;;;;;7.30;3.50;;;7.40;78.90;;;;;;4975354;28;20049;-81
2021/04/18 00:19:05;;;;;;;5.95;3.60;;;7.40;79.30;;;;;;4959197;28;20043;-82
2021/04/18 00:21:31;;;;;;;6.65;3.63;;;7.40;80.50;;;;;;4977342;28;20031;-81
2021/04/18 00:23:58;;;;;;;8.75;4.25;;;7.40;80.40;;;;;;4976250;28;20067;-80
2021/04/18 00:26:25;;;;;;;13.55;5.20;;;7.40;80.90;;;;;;4976079;28;20046;-81
2021/04/18 00:28:52;;;;;;;7.82;4.07;;;7.40;81.00;;;;;;4960344;28;20049;-81
2021/04/18 00:31:18;;;;;;;6.47;3.92;;;7.40;81.70;;;;;;4986033;28;20047;-81
2021/04/18 00:33:44;;;;;;;7.22;3.50;;;7.40;81.50;;;;;;4980999;28;20026;-81
2021/04/18 00:36:10;;;;;;;8.73;3.83;;;7.40;81.30;;;;;;4993073;28;20051;-82
2021/04/18 00:38:37;;;;;;;5.90;3.45;;;7.40;81.30;;;;;;4978673;28;20035;-81
2021/04/18 00:41:03;;;;;;;5.53;3.97;;;7.40;81.70;;;;;;4976000;28;20042;-82
2021/04/18 00:43:30;;;;;;;9.25;3.70;;;7.30;81.30;;;;;;4974387;28;20058;-81
2021/04/18 00:45:56;;;;;;;6.18;3.17;;;7.30;82.00;;;;;;4981955;28;20038;-81
2021/04/18 00:48:22;;;;;;;7.40;3.67;;;7.30;82.20;;;;;;4980550;28;20042;-81
2021/04/18 00:50:49;;;;;;;8.63;4.03;;;7.30;82.00;;;;;;4994581;28;20050;-81
2021/04/18 00:53:15;;;;;;;7.60;3.50;;;7.20;82.40;;;;;;4980009;28;20130;-81
2021/04/18 00:55:43;;;;;;;5.53;3.40;;;7.20;83.10;;;;;;4976648;28;20042;-81
2021/04/18 00:58:11;;;;;;;5.38;3.47;;;7.20;83.40;;;;;;4976271;28;20404;-81
2021/04/18 01:00:39;;;;;;;7.07;3.25;;;7.20;83.40;;;;;;4975697;28;20046;-81
2021/04/18 01:03:08;;;;;;;7.07;3.80;;;7.20;83.80;;;;;;4974995;28;20038;-82
2021/04/18 01:05:37;;;;;;;7.82;3.30;;;7.10;84.00;;;;;;4958325;28;20053;-82
2021/04/18 01:08:09;;;;;;;9.18;4.00;;;7.10;84.20;;;;;;4972736;28;20043;-82
2021/04/18 01:10:36;;;;;;;8.88;3.92;;;7.10;84.50;;;;;;4958289;28;20043;-81
2021/04/18 01:13:03;;;;;;;5.00;3.42;;;7.10;84.90;;;;;;4958898;28;20062;-80
2021/04/18 01:15:29;;;;;;;9.02;3.30;;;7.10;84.50;;;;;;4974472;28;20043;-81
2021/04/18 01:17:56;;;;;;;6.78;3.85;;;7.00;84.70;;;;;;4984300;28;20404;-80
2021/04/18 01:20:24;;;;;;;6.60;3.50;;;7.00;84.80;;;;;;4984722;28;20456;-81
2021/04/18 01:23:04;;;;;;;7.00;4.40;;;7.00;85.10;;;;;;4966184;28;20038;-81
2021/04/18 01:25:49;;;;;;;7.45;4.75;;;7.00;85.80;;;;;;4972957;28;20131;-80
2021/04/18 01:28:17;;;;;;;8.88;5.78;;;7.00;86.20;;;;;;4957739;28;20047;-81
2021/04/18 01:30:43;;;;;;;9.70;5.18;;;7.00;86.80;;;;;;4975509;28;20038;-80
2021/04/18 01:33:09;;;;;;;9.90;4.90;;;7.00;86.90;;;;;;4958494;28;20050;-80
2021/04/18 01:35:36;;;;;;;8.65;4.93;;;7.00;87.70;;;;;;4976016;28;20031;-80
2021/04/18 01:38:04;;;;;;;7.65;4.88;;;7.00;88.10;;;;;;4987146;28;20476;-80
2021/04/18 01:40:30;;;;;;;7.88;4.40;;;6.90;88.90;;;;;;4969145;28;20066;-81
2021/04/18 01:42:57;;;;;;;6.50;4.18;;;6.90;89.40;;;;;;4958783;28;20034;-81
2021/04/18 01:45:24;;;;;;;6.43;3.85;;;7.00;89.90;;;;;;4957508;28;20453;-81
2021/04/18 01:47:55;;;;;;;10.63;4.03;;;6.90;89.40;;;;;;4958144;28;20073;-81
2021/04/18 01:50:21;;;;;;;5.45;3.63;;;6.90;89.70;;;;;;4965535;28;20480;-82
2021/04/18 01:52:48;;;;;;;7.07;4.03;;;6.80;90.00;;;;;;4958994;28;20043;-82
2021/04/18 01:55:17;;;;;;;9.02;4.05;;;6.80;90.10;;;;;;4974725;28;20058;-81
2021/04/18 01:57:45;;;;;;;8.80;4.53;;;6.80;90.10;;;;;;4956344;28;20046;-82
2021/04/18 02:00:20;;;;;;;8.00;4.75;;;6.80;90.40;;;;;;4956263;28;20400;-82
2021/04/18 02:02:58;;;;;;;8.65;3.80;;;6.80;90.40;;;;;;4956623;28;20043;-81
2021/04/18 02:05:35;;;;;;;8.95;4.50;;;6.80;90.30;;;;;;4986849;28;20037;-80
2021/04/18 02:08:03;;;;;;;11.27;4.32;;;6.80;90.40;;;;;;4971254;28;20058;-80
2021/04/18 02:10:31;;;;;;;7.45;4.63;;;6.70;90.50;;;;;;4971181;28;20051;-80
2021/04/18 02:12:57;;;;;;;9.07;4.75;;;6.70;90.90;;;;;;4984030;28;20039;-81
2021/04/18 02:15:36;;;;;;;9.75;5.38;;;6.70;91.10;;;;;;4951108;28;20042;-80
2021/04/18 02:18:03;;;;;;;9.38;6.82;;;6.70;91.50;;;;;;4957805;28;20484;-81
2021/04/18 02:20:31;;;;;;;18.08;11.18;;;6.70;92.00;;;;;;4971628;28;20130;-81
2021/04/18 02:22:59;;;;;;;15.93;12.45;;;6.70;91.50;;;;;;4972645;28;20047;-81
2021/04/18 02:25:25;;;;;;;21.02;14.30;;;6.70;91.60;;;;;;4974275;28;20019;-81
2021/04/18 02:27:51;;;;;;;17.83;13.27;;;6.70;91.30;;;;;;4957774;28;20039;-81
2021/04/18 02:30:23;;;;;;;19.65;13.50;;;6.60;91.40;;;;;;4961651;28;20046;-81
2021/04/18 02:32:50;;;;;;;18.02;12.93;;;6.60;91.50;;;;;;4974381;28;20043;-81
2021/04/18 02:35:17;;;;;;;20.58;15.63;;;6.60;91.60;;;;;;4970642;28;20461;-82
2021/04/18 02:37:47;;;;;;;20.80;16.23;;;6.60;91.70;;;;;;4973492;28;20042;-81
2021/04/18 02:40:17;;;;;;;21.08;16.30;;;6.60;91.90;;;;;;4973896;28;20031;-81
2021/04/18 02:42:46;;;;;;;21.58;15.65;;;6.70;91.90;;;;;;4974827;28;20044;-80
2021/04/18 02:45:14;;;;;;;20.88;14.93;;;6.60;92.00;;;;;;4981657;28;20046;-81
2021/04/18 02:47:45;;;;;;;18.20;13.68;;;6.60;92.30;;;;;;4983256;28;20027;-81
2021/04/18 02:50:13;;;;;;;14.05;12.05;;;6.60;92.90;;;;;;4974041;28;20046;-81
2021/04/18 02:52:41;;;;;;;23.15;12.65;;;6.70;92.90;;;;;;4956731;28;20043;-81
2021/04/18 02:55:08;;;;;;;9.88;6.72;;;6.70;92.70;;;;;;4987377;28;20027;-81
2021/04/18 02:57:44;;;;;;;9.68;5.22;;;6.60;93.40;;;;;;4956696;28;20042;-81
2021/04/18 03:00:13;;;;;;;12.73;4.68;;;6.50;94.00;;;;;;4975714;28;20061;-81
2021/04/18 03:02:39;;;;;;;7.15;4.75;;;6.40;94.50;;;;;;4974864;28;20050;-81
2021/04/18 03:05:07;;;;;;;7.20;4.60;;;6.30;95.20;;;;;;4966647;28;20043;-82
2021/04/18 03:07:34;;;;;;;8.68;4.00;;;6.20;96.00;;;;;;4970313;28;20043;-81
2021/04/18 03:10:05;;;;;;;8.35;4.43;;;6.20;96.80;;;;;;4988286;28;20057;-82
2021/04/18 03:12:33;;;;;;;16.58;7.68;;;6.20;97.30;;;;;;4973245;28;20042;-81
2021/04/18 03:15:01;;;;;;;10.45;6.03;;;6.20;97.70;;;;;;4961718;28;20042;-82
2021/04/18 03:17:28;;;;;;;10.50;6.57;;;6.10;98.50;;;;;;4972514;28;20345;-82
2021/04/18 03:20:08;;;;;;;8.73;6.72;;;6.00;99.50;;;;;;4973415;28;20043;-82
2021/04/18 03:22:36;;;;;;;8.35;7.13;;;5.80;99.90;;;;;;4968458;28;20050;-82
2021/04/18 03:25:04;;;;;;;9.93;7.05;;;5.80;99.90;;;;;;4970840;28;20042;-81
2021/04/18 03:27:32;;;;;;;12.30;5.43;;;5.70;99.90;;;;;;4955808;28;20053;-82
2021/04/18 03:30:06;;;;;;;7.80;5.57;;;5.80;99.90;;;;;;4983295;28;20511;-81
2021/04/18 03:32:41;;;;;;;10.90;6.22;;;5.80;99.90;;;;;;4957252;28;20043;-81
2021/04/18 03:35:08;;;;;;;6.55;4.28;;;5.80;99.90;;;;;;4991252;28;20058;-82
2021/04/18 03:37:34;;;;;;;9.02;5.95;;;5.80;99.90;;;;;;4956504;28;20043;-81
2021/04/18 03:40:02;;;;;;;11.35;7.15;;;5.80;99.90;;;;;;4958377;28;20397;-81
2021/04/18 03:42:28;;;;;;;8.85;5.88;;;5.70;99.90;;;;;;4985317;28;20042;-80
2021/04/18 03:44:55;;;;;;;10.77;5.28;;;5.70;99.90;;;;;;4974479;28;20468;-81
2021/04/18 03:47:22;;;;;;;8.82;4.85;;;5.50;99.90;;;;;;4959222;28;20066;-81
2021/04/18 03:50:06;;;;;;;5.80;4.13;;;5.60;99.90;;;;;;4977251;28;20034;-81
2021/04/18 03:52:57;;;;;;;8.18;5.25;;;5.60;99.90;;;;;;4959978;28;20035;-81
2021/04/18 03:55:27;;;;;;;6.90;4.75;;;5.50;99.90;;;;;;4946902;28;20217;-82
2021/04/18 03:57:54;;;;;;;12.20;7.35;;;5.40;99.90;;;;;;4977245;28;20030;-81
2021/04/18 04:00:23;;;;;;;9.00;4.50;;;5.30;99.90;;;;;;4976049;28;20054;-82
2021/04/18 04:02:58;;;;;;;7.35;5.13;;;5.30;99.90;;;;;;4977489;28;20033;-81
2021/04/18 04:05:25;;;;;;;14.02;10.60;;;5.20;99.90;;;;;;4975763;28;20041;-81
2021/04/18 04:07:53;;;;;;;11.90;8.07;;;5.10;99.90;;;;;;4973448;28;20039;-81
2021/04/18 04:10:20;;;;;;;9.52;5.70;;;5.20;99.90;;;;;;4958346;28;20050;-81
2021/04/18 04:12:50;;;;;;;5.72;4.28;;;5.20;99.90;;;;;;4944424;28;20038;-81
2021/04/18 04:15:17;;;;;;;6.07;4.22;;;5.10;99.90;;;;;;4976546;28;20035;-81
2021/04/18 04:17:45;;;;;;;15.98;9.38;;;5.10;99.90;;;;;;4976526;28;20035;-82
2021/04/18 04:20:37;;;;;;;37.85;20.83;;;5.20;99.90;;;;;;4974314;28;20055;-82
2021/04/18 04:23:34;;;;;;;9.55;5.57;;;5.30;99.90;;;;;;4922142;28;20040;-82
2021/04/18 04:26:01;;;;;;;8.77;4.65;;;5.30;99.90;;;;;;4975022;28;20058;-82
2021/04/18 04:28:27;;;;;;;7.15;5.25;;;5.30;99.90;;;;;;4970683;28;20038;-82
2021/04/18 04:30:54;;;;;;;6.57;5.35;;;5.30;99.90;;;;;;4976958;28;20038;-82
2021/04/18 04:33:20;;;;;;;11.20;5.70;;;5.20;99.90;;;;;;4984420;28;20042;-82
2021/04/18 04:35:46;;;;;;;7.05;4.85;;;5.10;99.90;;;;;;4959019;28;20038;-82
2021/04/18 04:38:12;;;;;;;10.93;5.00;;;5.10;99.90;;;;;;4964152;28;20045;-82
2021/04/18 04:40:39;;;;;;;7.20;3.72;;;5.00;99.90;;;;;;4973259;28;20038;-81
2021/04/18 04:43:05;;;;;;;6.18;4.40;;;4.90;99.90;;;;;;4975617;28;20031;-82
2021/04/18 04:45:31;;;;;;;6.43;3.75;;;4.90;99.90;;;;;;4972714;28;20252;-81
2021/04/18 04:47:57;;;;;;;10.13;4.38;;;4.90;99.90;;;;;;4975481;28;20042;-81
2021/04/18 04:50:24;;;;;;;7.05;4.07;;;5.00;99.90;;;;;;4974430;28;20055;-82
2021/04/18 04:52:50;;;;;;;6.05;4.30;;;5.00;99.90;;;;;;4975029;28;20049;-81
2021/04/18 04:55:16;;;;;;;8.57;3.35;;;5.10;99.90;;;;;;4974655;28;20040;-82
2021/04/18 04:57:42;;;;;;;7.65;3.55;;;5.20;99.90;;;;;;4975267;28;20031;-81
2021/04/18 05:00:09;;;;;;;6.18;3.95;;;5.20;99.90;;;;;;4974953;28;20058;-82
2021/04/18 05:02:36;;;;;;;6.68;3.75;;;5.20;99.90;;;;;;4975483;28;20026;-81
2021/04/18 05:05:03;;;;;;;6.45;3.90;;;5.40;99.90;;;;;;4957774;28;20046;-81
2021/04/18 05:07:29;;;;;;;8.65;3.50;;;5.40;99.90;;;;;;4958585;28;20035;-82
2021/04/18 05:09:55;;;;;;;6.22;4.00;;;5.40;99.90;;;;;;4975164;28;20045;-80
2021/04/18 05:12:21;;;;;;;6.68;4.38;;;5.50;99.90;;;;;;4974494;28;20058;-81
2021/04/18 05:14:47;;;;;;;9.07;6.70;;;5.60;99.90;;;;;;4975708;28;20042;-81
2021/04/18 05:17:14;;;;;;;12.07;8.90;;;5.60;99.90;;;;;;4982136;28;20049;-82
2021/04/18 05:19:40;;;;;;;16.33;11.02;;;5.60;99.90;;;;;;4983879;28;20046;-82
2021/04/18 05:22:06;;;;;;;9.07;6.15;;;5.60;99.90;;;;;;4988267;28;20413;-82
2021/04/18 05:24:33;;;;;;;8.48;5.75;;;5.60;99.90;;;;;;4985050;28;20058;-82
2021/04/18 05:26:59;;;;;;;6.93;4.63;;;5.80;99.90;;;;;;4968650;28;20050;-82
2021/04/18 05:29:26;;;;;;;8.98;4.53;;;6.20;99.90;;;;;;4990781;28;20050;-82
2021/04/18 05:31:54;;;;;;;7.90;4.97;;;7.10;99.90;;;;;;4961917;28;20449;-81
2021/04/18 05:34:20;;;;;;;7.88;4.47;;;8.40;95.00;;;;;;4977322;28;20405;-81
2021/04/18 05:36:46;;;;;;;6.55;4.35;;;8.80;91.60;;;;;;4975040;28;20042;-82
2021/04/18 05:39:13;;;;;;;6.05;3.42;;;8.40;90.70;;;;;;4975530;28;20476;-81
2021/04/18 05:41:39;;;;;;;7.53;4.35;;;7.90;92.30;;;;;;4975231;28;20344;-81
2021/04/18 05:44:13;;;;;;;7.28;4.43;;;7.30;94.10;;;;;;4975346;28;20116;-82
2021/04/18 05:46:41;;;;;;;7.00;4.45;;;7.00;95.50;;;;;;4977019;28;20027;-81
2021/04/18 05:49:08;;;;;;;8.80;6.00;;;7.00;96.70;;;;;;4976033;28;20031;-82
2021/04/18 05:51:34;;;;;;;8.38;5.50;;;7.00;97.30;;;;;;4974940;28;20372;-81
2021/04/18 05:54:00;;;;;;;8.25;4.68;;;7.00;97.80;;;;;;4974630;28;20383;-81
2021/04/18 05:56:27;;;;;;;9.88;5.10;;;7.00;97.30;;;;;;4975824;28;20034;-82
2021/04/18 05:58:53;;;;;;;8.20;4.78;;;7.00;97.50;;;;;;4988919;28;20050;-82
2021/04/18 06:01:23;;;;;;;6.13;4.97;;;7.00;97.80;;;;;;4973822;28;20931;-82
2021/04/18 06:03:50;;;;;;;9.70;5.30;;;7.10;97.60;;;;;;4974897;28;20416;-81
2021/04/18 06:06:17;;;;;;;8.02;5.90;;;7.00;97.40;;;;;;4974370;28;20479;-82
2021/04/18 06:08:43;;;;;;;9.65;6.03;;;7.10;97.90;;;;;;4974439;28;20433;-81
2021/04/18 06:11:09;;;;;;;8.63;5.47;;;7.10;97.70;;;;;;4973691;28;20031;-82
2021/04/18 06:13:36;;;;;;;8.90;5.57;;;7.10;97.70;;;;;;4956447;28;20042;-82
2021/04/18 06:16:02;;;;;;;12.52;7.68;;;7.10;97.80;;;;;;4956970;28;20058;-81
2021/04/18 06:18:28;;;;;;;11.57;6.75;;;7.10;97.50;;;;;;4974044;28;20046;-82
2021/04/18 06:20:54;;;;;;;10.38;7.00;;;7.20;96.70;;;;;;4993799;28;20042;-81
2021/04/18 06:23:22;;;;;;;9.27;5.45;;;7.20;96.40;;;;;;4978498;28;20379;-81
2021/04/18 06:25:49;;;;;;;254.05;132.98;;;7.20;96.20;;;;;;4971139;28;20042;-81
2021/04/18 06:28:16;;;;;;;220.80;116.38;;;7.30;96.80;;;;;;4973408;28;20063;-83
2021/04/18 06:30:43;;;;;;;52.85;28.33;;;7.40;96.70;;;;;;4974168;28;20049;-83
2021/04/18 06:33:09;;;;;;;15.40;9.15;;;7.50;96.10;;;;;;4973048;28;20050;-81
2021/04/18 06:35:36;;;;;;;17.63;8.07;;;7.40;95.00;;;;;;4977141;28;20480;-83
2021/04/18 06:38:02;;;;;;;10.45;6.20;;;7.40;94.70;;;;;;4986464;28;20039;-83
2021/04/18 06:40:28;;;;;;;10.73;6.10;;;7.40;94.80;;;;;;4981409;28;20044;-84
2021/04/18 06:42:57;;;;;;;12.88;7.15;;;7.50;94.20;;;;;;4968285;28;20057;-82
2021/04/18 06:45:23;;;;;;;10.70;7.07;;;7.80;93.90;;;;;;4960447;28;20034;-81
2021/04/18 06:47:50;;;;;;;8.77;5.97;;;8.40;93.20;;;;;;4975330;28;20045;-83
2021/04/18 06:50:17;;;;;;;11.13;7.32;;;8.80;91.10;;;;;;4973320;28;20042;-83
2021/04/18 06:52:43;;;;;;;7.90;6.03;;;8.90;89.80;;;;;;4967592;28;20039;-83
2021/04/18 06:55:11;;;;;;;8.98;6.13;;;9.10;88.60;;;;;;4973838;28;20047;-82
2021/04/18 06:57:38;;;;;;;12.35;5.88;;;9.50;85.40;;;;;;4969397;28;20042;-84
2021/04/18 07:00:09;;;;;;;9.85;6.80;;;10.40;81.00;;;;;;4974223;28;20050;-85
2021/04/18 07:02:35;;;;;;;;;;;10.90;75.70;;;;;;4973495;28;20042;-86
2021/04/18 07:05:03;;;;;;;7.95;4.70;;;10.40;75.90;;;;;;4971509;28;19910;-85
2021/04/18 07:07:32;;;;;;;9.32;4.85;;;10.40;75.20;;;;;;4984957;28;20605;-85
2021/04/18 07:09:58;;;;;;;6.00;4.50;;;10.70;73.70;;;;;;4986322;28;20041;-86
2021/04/18 07:12:26;;;;;;;6.05;4.35;;;10.90;73.90;;;;;;4987856;28;20031;-88
2021/04/18 07:14:53;;;;;;;10.18;4.93;;;11.30;70.00;;;;;;4972901;28;20030;-86
2021/04/18 07:17:19;;;;;;;7.72;5.18;;;10.80;69.00;;;;;;4976722;28;20376;-86
2021/04/18 07:19:49;;;;;;;7.55;4.78;;;10.10;71.10;;;;;;4956764;28;20401;-86
2021/04/18 07:22:17;;;;;;;9.35;4.65;;;10.60;70.10;;;;;;4959560;28;20043;-86
2021/04/18 07:24:52;;;;;;;9.60;4.90;;;11.50;65.90;;;;;;4973172;28;20034;-82
2021/04/18 07:27:19;;;;;;;9.75;4.25;;;11.40;65.30;;;;;;4973092;28;20054;-83
2021/04/18 07:29:59;;;;;;;8.02;4.78;;;11.10;66.00;;;;;;4953981;28;20051;-81
2021/04/18 07:32:28;;;;;;;7.68;5.03;;;11.50;66.70;;;;;;4973001;28;20046;-83
2021/04/18 07:34:55;;;;;;;8.43;5.32;;;11.60;64.60;;;;;;4956245;28;20030;-85
2021/04/18 07:37:25;;;;;;;8.88;4.85;;;10.40;64.40;;;;;;4973303;28;20027;-84
2021/04/18 07:40:00;;;;;;;7.82;4.80;;;9.70;67.20;;;;;;4973329;28;20039;-83
2021/04/18 07:42:41;;;;;;;9.45;5.43;;;9.50;68.30;;;;;;4972570;28;20034;-84
2021/04/18 07:45:12;;;;;;;9.93;5.60;;;9.30;69.00;;;;;;4983736;28;20107;-83
2021/04/18 07:47:41;;;;;;;10.93;5.45;;;9.30;69.90;;;;;;4982382;28;20297;-84
2021/04/18 07:50:14;;;;;;;8.10;4.93;;;9.30;69.60;;;;;;4972959;28;20042;-83
2021/04/18 07:52:42;;;;;;;9.50;5.28;;;9.50;69.60;;;;;;4972896;28;20034;-83
2021/04/18 07:55:10;;;;;;;8.55;5.38;;;9.50;69.00;;;;;;4972360;28;20049;-81
2021/04/18 07:57:36;;;;;;;12.10;5.38;;;9.50;68.70;;;;;;4989960;28;20038;-83
2021/04/18 08:00:05;;;;;;;8.25;5.47;;;9.70;68.10;;;;;;4973036;28;20428;-83
2021/04/18 08:02:48;;;;;;;9.10;5.55;;;9.50;67.80;;;;;;4979434;28;20039;-83
2021/04/18 08:05:16;;;;;;;9.75;6.43;;;9.40;68.50;;;;;;4989951;28;20034;-83
2021/04/18 08:08:03;;;;;;;9.90;6.22;;;9.40;68.80;;;;;;4972921;28;20049;-83
2021/04/18 08:10:33;;;;;;;29.27;23.23;;;9.40;68.70;;;;;;4982159;28;20614;-83
2021/04/18 08:13:14;;;;;;;11.25;7.25;;;9.50;68.80;;;;;;4978347;28;20047;-83
2021/04/18 08:16:03;;;;;;;14.32;5.80;;;9.70;68.10;;;;;;4971676;28;20404;-83
2021/04/18 08:18:36;;;;;;;9.25;6.40;;;9.80;67.70;;;;;;4964341;28;20027;-84
2021/04/18 08:21:21;;;;;;;12.15;7.82;;;10.00;66.70;;;;;;4955749;28;20050;-83
2021/04/18 08:23:48;;;;;;;11.95;7.20;;;9.90;67.10;;;;;;4973931;28;20043;-83
2021/04/18 08:26:17;;;;;;;14.48;9.48;;;10.00;67.60;;;;;;4974945;28;20054;-84
2021/04/18 08:28:52;;;;;;;14.35;8.85;;;10.10;67.10;;;;;;4976742;28;20037;-84
2021/04/18 08:31:20;;;;;;;17.13;11.93;;;10.30;66.60;;;;;;4976213;28;20051;-83
2021/04/18 08:33:51;;;;;;;15.75;9.77;;;10.20;66.70;;;;;;4976947;28;20043;-78
2021/04/18 08:36:19;;;;;;;;;;;10.10;67.20;;;;;;4982086;28;20422;-80
2021/04/18 08:39:04;;;;;;;17.42;9.65;;;10.40;66.00;;;;;;4978199;28;19910;-81
2021/04/18 08:41:39;;;;;;;15.95;9.80;;;10.20;67.10;;;;;;4973085;28;20062;-82
2021/04/18 08:44:18;;;;;;;15.60;9.20;;;11.20;64.80;;;;;;4943436;28;20507;-78
2021/04/18 08:46:45;;;;;;;14.27;9.43;;;11.00;63.90;;;;;;4975602;28;20030;-82
2021/04/18 08:49:24;;;;;;;14.75;10.30;;;10.60;65.20;;;;;;4975189;28;20031;-81
2021/04/18 08:51:52;;;;;;;13.77;10.40;;;10.70;66.00;;;;;;4958852;28;20030;-84
2021/04/18 08:54:27;;;;;;;14.75;9.32;;;10.70;65.50;;;;;;4974396;28;20043;-82
2021/04/18 08:56:57;;;;;;;16.15;8.95;;;10.40;66.30;;;;;;4975369;28;20500;-81
2021/04/18 08:59:23;;;;;;;15.20;10.63;;;10.50;66.30;;;;;;4981869;28;20042;-82
2021/04/18 09:01:59;;;;;;;14.82;9.80;;;10.70;66.50;;;;;;4985206;28;20057;-84
2021/04/18 09:04:34;;;;;;;14.07;8.80;;;10.80;65.80;;;;;;4994187;28;20034;-88
2021/04/18 09:07:01;;;;;;;12.77;8.80;;;10.50;66.60;;;;;;4993570;28;20030;-82
2021/04/18 09:09:28;;;;;;;15.38;9.00;;;10.70;66.80;;;;;;4972284;28;20038;-85
2021/04/18 09:11:55;;;;;;;13.82;9.70;;;10.80;66.90;;;;;;4975884;28;20500;-86
2021/04/18 09:14:33;;;;;;;16.02;9.88;;;10.70;66.60;;;;;;4980322;28;20033;-86
2021/04/18 09:17:08;;;;;;;14.48;8.85;;;11.00;66.30;;;;;;4944068;28;20050;-82
2021/04/18 09:19:34;;;;;;;16.58;11.02;;;10.50;67.00;;;;;;4974728;28;20034;-84
2021/04/18 09:22:06;;;;;;;18.25;11.55;;;10.70;67.60;;;;;;4991492;28;20046;-86
2021/04/18 09:24:36;;;;;;;13.95;10.80;;;10.70;66.50;;;;;;4972050;28;20534;-85
2021/04/18 09:27:25;;;;;;;16.87;11.57;;;10.80;67.10;;;;;;4958226;28;20050;-85
2021/04/18 09:29:53;;;;;;;17.20;10.52;;;10.50;67.30;;;;;;4958456;28;20301;-81
2021/04/18 09:32:22;;;;;;;16.40;10.65;;;10.40;68.30;;;;;;4941941;28;20043;-83
2021/04/18 09:34:49;;;;;;;16.27;10.98;;;10.60;69.50;;;;;;4975065;28;20043;-82
2021/04/18 09:37:37;;;;;;;14.90;10.57;;;10.80;66.70;;;;;;4956155;28;20038;-74
2021/04/18 09:40:15;;;;;;;18.50;10.93;;;10.60;67.30;;;;;;4974526;28;20050;-79
2021/04/18 09:42:48;;;;;;;17.35;10.88;;;10.60;67.60;;;;;;4974778;28;20031;-78
2021/04/18 09:45:17;;;;;;;16.33;11.20;;;10.90;67.60;;;;;;4982947;28;20473;-78
2021/04/18 09:47:49;;;;;;;16.48;10.32;;;10.90;67.90;;;;;;4989256;28;20034;-87
2021/04/18 09:50:35;;;;;;;13.68;10.27;;;11.00;67.30;;;;;;4961680;28;20495;-87
2021/04/18 09:53:22;;;;;;;14.98;10.30;;;11.20;66.70;;;;;;4988894;28;20047;-86
2021/04/18 09:55:58;;;;;;;14.55;9.73;;;11.10;67.40;;;;;;4972979;28;20393;-86
2021/04/18 09:58:37;;;;;;;14.57;10.85;;;11.10;67.70;;;;;;4940975;28;20054;-86
2021/04/18 10:01:21;;;;;;;15.20;9.75;;;11.40;67.20;;;;;;4958517;28;20042;-86
2021/04/18 10:03:47;;;;;;;14.27;10.52;;;11.10;67.60;;;;;;4974959;28;20038;-88
2021/04/18 10:06:14;;;;;;;18.70;10.90;;;10.90;68.50;;;;;;4974595;28;20037;-85
2021/04/18 10:08:55;;;;;;;15.77;10.65;;;11.10;67.90;;;;;;4975264;28;20034;-86
2021/04/18 10:11:22;;;;;;;17.95;10.55;;;11.10;68.30;;;;;;4973918;28;20046;-85
2021/04/18 10:14:00;;;;;;;16.02;11.00;;;11.30;68.10;;;;;;4976897;28;20038;-88
2021/04/18 10:16:36;;;;;;;16.10;11.13;;;11.80;67.50;;;;;;4976964;28;20038;-87
2021/04/18 10:19:05;;;;;;;15.85;10.35;;;11.40;68.20;;;;;;4960769;28;20039;-87
2021/04/18 10:21:31;;;;;;;15.82;11.38;;;11.20;69.20;;;;;;4972765;28;20231;-84
2021/04/18 10:23:57;;;;;;;27.52;19.00;;;11.10;70.30;;;;;;4992907;28;20034;-85
2021/04/18 10:26:24;;;;;;;15.27;9.80;;;11.40;69.80;;;;;;4985201;28;20039;-85
2021/04/18 10:28:55;;;;;;;13.65;9.80;;;11.40;69.00;;;;;;4957272;28;20523;-85
2021/04/18 10:31:24;;;;;;;12.73;8.88;;;11.30;69.20;;;;;;4973916;28;20392;-86
2021/04/18 10:33:50;;;;;;;15.88;11.02;;;11.60;68.90;;;;;;4975238;28;20034;-85
2021/04/18 10:36:17;;;;;;;13.50;10.95;;;11.60;69.50;;;;;;5000873;28;20029;-86
2021/04/18 10:38:44;;;;;;;15.23;10.52;;;11.50;69.90;;;;;;4981694;28;20043;-85
2021/04/18 10:41:11;;;;;;;14.15;10.38;;;11.70;69.60;;;;;;4974038;28;20432;-83
2021/04/18 10:43:37;;;;;;;15.30;10.55;;;11.80;69.20;;;;;;4973798;28;20058;-86
2021/04/18 10:46:04;;;;;;;12.88;8.98;;;11.40;70.80;;;;;;4974130;28;20038;-87
2021/04/18 10:48:30;;;;;;;13.18;10.27;;;11.80;69.80;;;;;;4976849;28;20038;-85
2021/04/18 10:50:57;;;;;;;13.25;10.23;;;12.00;68.70;;;;;;4973615;28;20034;-84
2021/04/18 10:53:23;;;;;;;15.98;10.65;;;12.10;68.60;;;;;;4955444;28;20039;-86
2021/04/18 10:55:50;;;;;;;14.98;9.20;;;11.90;69.20;;;;;;4956108;28;20042;-84
2021/04/18 10:58:17;;;;;;;14.40;9.93;;;11.70;70.10;;;;;;4968644;28;20030;-84
2021/04/18 11:00:44;;;;;;;14.23;11.05;;;11.60;69.60;;;;;;4970599;28;20050;-84
2021/04/18 11:03:10;;;;;;;16.27;10.60;;;11.40;70.70;;;;;;4973593;28;20031;-83
2021/04/18 11:05:37;;;;;;;13.45;10.02;;;11.90;70.00;;;;;;4979445;28;20034;-83
2021/04/18 11:08:03;;;;;;;15.07;10.48;;;12.00;69.00;;;;;;4975159;28;20057;-85
2021/04/18 11:10:31;;;;;;;14.52;9.50;;;12.30;69.10;;;;;;4976489;28;20035;-85
2021/04/18 11:12:57;;;;;;;13.30;9.77;;;12.20;68.70;;;;;;4981981;28;20042;-83
2021/04/18 11:15:24;;;;;;;13.70;9.80;;;11.80;69.80;;;;;;4972717;28;20034;-82
2021/04/18 11:17:50;;;;;;;12.25;9.93;;;11.90;70.30;;;;;;4970889;28;20053;-83
2021/04/18 11:20:20;;;;;;;15.52;9.43;;;12.00;69.60;;;;;;4955741;28;20395;-83
2021/04/18 11:22:46;;;;;;;13.98;10.70;;;12.00;69.40;;;;;;4954221;28;20067;-83
2021/04/18 11:25:13;;;;;;;13.65;9.73;;;12.10;69.50;;;;;;4955313;28;20043;-81
2021/04/18 11:27:40;;;;;;;14.75;10.68;;;12.40;68.70;;;;;;4974024;28;20053;-84
2021/04/18 11:30:12;;;;;;;17.23;11.00;;;12.30;69.20;;;;;;4953758;28;20046;-82
2021/04/18 11:32:39;;;;;;;13.85;11.07;;;11.90;69.40;;;;;;4972997;28;20027;-82
2021/04/18 11:35:09;;;;;;;12.95;9.50;;;12.10;69.60;;;;;;4973893;28;20476;-83
2021/04/18 11:37:36;;;;;;;14.13;10.80;;;12.20;69.10;;;;;;4956657;28;20518;-88
2021/04/18 11:40:05;;;;;;;13.73;9.60;;;12.40;69.30;;;;;;4974755;28;20034;-87
2021/04/18 11:42:32;;;;;;;13.45;10.02;;;13.00;68.10;;;;;;4958212;28;20035;-90
2021/04/18 11:45:01;;;;;;;14.90;11.05;;;13.70;65.80;;;;;;4978234;28;20035;-90
2021/04/18 11:47:28;;;;;;;13.30;10.57;;;13.20;66.00;;;;;;4959992;28;20039;-89
2021/04/18 11:49:54;;;;;;;12.65;9.07;;;12.70;66.60;;;;;;4976907;28;20039;-89
2021/04/18 11:52:21;;;;;;;13.43;9.80;;;12.20;68.40;;;;;;4959185;28;20531;-90
2021/04/18 11:54:47;;;;;;;16.83;14.48;;;12.30;68.40;;;;;;4980484;28;20033;-91
2021/04/18 11:57:13;;;;;;;14.50;9.20;;;12.70;67.40;;;;;;4972690;28;20043;-84
2021/04/18 11:59:40;;;;;;;13.15;9.82;;;12.50;67.20;;;;;;4966348;28;20500;-90
2021/04/18 12:02:07;;;;;;;17.05;11.57;;;12.30;67.60;;;;;;4969096;28;20051;-88
2021/04/18 12:04:34;;;;;;;15.02;10.45;;;12.10;69.40;;;;;;4979164;28;20648;-88
2021/04/18 12:07:00;;;;;;;15.85;11.10;;;12.00;69.70;;;;;;4979123;28;20456;-90
2021/04/18 12:09:26;;;;;;;12.38;10.10;;;11.80;70.60;;;;;;4960700;28;20035;-88
2021/04/18 12:11:53;;;;;;;15.50;11.35;;;11.60;71.80;;;;;;4977862;28;20050;-85
2021/04/18 12:14:19;;;;;;;13.27;11.43;;;11.50;73.30;;;;;;4977205;28;20361;-74
2021/04/18 12:16:45;;;;;;;15.27;10.07;;;11.50;74.10;;;;;;4960640;28;20046;-78
2021/04/18 12:19:12;;;;;;;14.13;10.43;;;11.60;74.40;;;;;;4973130;28;20038;-77
2021/04/18 12:21:38;;;;;;;13.15;10.55;;;11.40;74.90;;;;;;5002021;28;20057;-77
2021/04/18 12:24:05;;;;;;;18.30;11.30;;;11.40;75.30;;;;;;4982524;28;20414;-77
2021/04/18 12:26:32;;;;;;;15.45;10.80;;;11.40;76.20;;;;;;5006482;28;20043;-78
2021/04/18 12:28:58;;;;;;;15.82;12.02;;;11.50;75.60;;;;;;4990690;28;20045;-78
2021/04/18 12:31:26;;;;;;;15.98;11.02;;;11.40;76.00;;;;;;4977138;28;20035;-77
2021/04/18 12:33:52;;;;;;;13.48;10.23;;;11.60;75.20;;;;;;4979103;28;20031;-78
2021/04/18 12:36:21;;;;;;;15.25;10.32;;;11.50;76.10;;;;;;4978679;28;20038;-77
2021/04/18 12:38:47;;;;;;;13.20;10.52;;;11.60;76.10;;;;;;4982723;28;20035;-77
2021/04/18 12:41:13;;;;;;;15.15;10.77;;;11.80;75.90;;;;;;4989219;28;20046;-77
2021/04/18 12:43:40;;;;;;;18.08;12.20;;;12.10;74.10;;;;;;4967627;28;20500;-78
2021/04/18 12:46:08;;;;;;;14.30;10.93;;;12.10;73.00;;;;;;4977006;28;20046;-77
2021/04/18 12:48:34;;;;;;;14.70;10.65;;;12.00;73.00;;;;;;4961005;28;20038;-76
2021/04/18 12:51:01;;;;;;;14.70;10.55;;;11.90;73.80;;;;;;4978028;28;20035;-77
2021/04/18 12:53:28;;;;;;;16.65;10.65;;;11.90;73.70;;;;;;4974417;28;20043;-75
2021/04/18 12:55:55;;;;;;;17.40;11.00;;;11.80;74.10;;;;;;4974479;28;20049;-76